sensor_id;sensor_type;location;lat;lon;timestamp;temperature;humidity
11188;DHT22;5650;52.700;7.306;2023-07-29T00:00:48;18.30;99.90
11188;DHT22;5650;52.700;7.306;2023-07-29T00:03:17;18.30;99.90
11188;DHT22;5650;52.700;7.306;2023-07-29T00:05:44;18.30;99.90
11188;DHT22;5650;52.700;7.306;2023-07-29T00:08:17;18.30;99.90
11188;DHT22;5650;52.700;7.306;2023-07-29T00:10:47;18.30;99.90
11188;DHT22;5650;52.700;7.306;2023-07-29T00:13:15;18.30;99.90
11188;DHT22;5650;52.700;7.306;2023-07-29T00:15:45;18.30;99.90
11188;DHT22;5650;52.700;7.306;2023-07-29T00:18:12;18.30;99.90
11188;DHT22;5650;52.700;7.306;2023-07-29T00:20:44;18.30;99.90
11188;DHT22;5650;52.700;7.306;2023-07-29T00:23:11;18.30;99.90
11188;DHT22;5650;52.700;7.306;2023-07-29T00:25:38;18.30;99.90
11188;DHT22;5650;52.700;7.306;2023-07-29T00:28:06;18.30;99.90
11188;DHT22;5650;52.700;7.306;2023-07-29T00:30:45;18.30;99.90
11188;DHT22;5650;52.700;7.306;2023-07-29T00:33:12;18.30;99.90
11188;DHT22;5650;52.700;7.306;2023-07-29T00:35:39;18.30;99.90
11188;DHT22;5650;52.700;7.306;2023-07-29T00:38:07;18.30;99.90
11188;DHT22;5650;52.700;7.306;2023-07-29T00:40:36;18.30;99.90
11188;DHT22;5650;52.700;7.306;2023-07-29T00:43:03;18.30;99.90
11188;DHT22;5650;52.700;7.306;2023-07-29T00:45:41;18.30;99.90
11188;DHT22;5650;52.700;7.306;2023-07-29T00:48:10;18.20;99.90
11188;DHT22;5650;52.700;7.306;2023-07-29T00:50:55;18.20;99.90
11188;DHT22;5650;52.700;7.306;2023-07-29T00:53:27;18.20;99.90
11188;DHT22;5650;52.700;7.306;2023-07-29T00:55:54;18.20;99.90
11188;DHT22;5650;52.700;7.306;2023-07-29T00:58:24;18.10;99.90
11188;DHT22;5650;52.700;7.306;2023-07-29T01:00:51;18.10;99.90
11188;DHT22;5650;52.700;7.306;2023-07-29T01:03:25;18.10;99.90
11188;DHT22;5650;52.700;7.306;2023-07-29T01:06:01;18.10;99.90
11188;DHT22;5650;52.700;7.306;2023-07-29T01:08:46;18.20;99.90
11188;DHT22;5650;52.700;7.306;2023-07-29T01:11:24;18.20;99.90
11188;DHT22;5650;52.700;7.306;2023-07-29T01:14:08;18.20;99.90
11188;DHT22;5650;52.700;7.306;2023-07-29T01:16:41;18.20;99.90
11188;DHT22;5650;52.700;7.306;2023-07-29T01:19:18;18.20;99.90
11188;DHT22;5650;52.700;7.306;2023-07-29T01:21:51;18.10;99.90
11188;DHT22;5650;52.700;7.306;2023-07-29T01:24:31;18.10;99.90
11188;DHT22;5650;52.700;7.306;2023-07-29T01:26:58;18.10;99.90
11188;DHT22;5650;52.700;7.306;2023-07-29T01:29:36;18.20;99.90
11188;DHT22;5650;52.700;7.306;2023-07-29T01:32:11;18.20;99.90
11188;DHT22;5650;52.700;7.306;2023-07-29T01:34:48;18.20;99.90
11188;DHT22;5650;52.700;7.306;2023-07-29T01:37:26;18.30;99.90
11188;DHT22;5650;52.700;7.306;2023-07-29T01:40:01;18.30;99.90
11188;DHT22;5650;52.700;7.306;2023-07-29T01:42:32;18.30;99.90
11188;DHT22;5650;52.700;7.306;2023-07-29T01:45:05;18.40;99.90
11188;DHT22;5650;52.700;7.306;2023-07-29T01:47:41;18.40;99.90
11188;DHT22;5650;52.700;7.306;2023-07-29T01:50:20;18.40;99.90
11188;DHT22;5650;52.700;7.306;2023-07-29T01:52:53;18.40;99.90
11188;DHT22;5650;52.700;7.306;2023-07-29T01:55:32;18.40;99.90
11188;DHT22;5650;52.700;7.306;2023-07-29T01:57:59;18.40;99.90
11188;DHT22;5650;52.700;7.306;2023-07-29T02:00:41;18.40;99.90
11188;DHT22;5650;52.700;7.306;2023-07-29T02:03:10;18.50;99.90
11188;DHT22;5650;52.700;7.306;2023-07-29T02:05:43;18.40;99.90
11188;DHT22;5650;52.700;7.306;2023-07-29T02:08:11;18.40;99.90
11188;DHT22;5650;52.700;7.306;2023-07-29T02:10:45;18.40;99.90
11188;DHT22;5650;52.700;7.306;2023-07-29T02:13:19;18.40;99.90
11188;DHT22;5650;52.700;7.306;2023-07-29T02:15:46;18.40;99.90
11188;DHT22;5650;52.700;7.306;2023-07-29T02:18:13;18.40;99.90
11188;DHT22;5650;52.700;7.306;2023-07-29T02:20:43;18.40;99.90
11188;DHT22;5650;52.700;7.306;2023-07-29T02:23:17;18.50;99.90
11188;DHT22;5650;52.700;7.306;2023-07-29T02:25:46;18.50;99.90
11188;DHT22;5650;52.700;7.306;2023-07-29T02:28:16;18.50;99.90
11188;DHT22;5650;52.700;7.306;2023-07-29T02:30:46;18.50;99.90
11188;DHT22;5650;52.700;7.306;2023-07-29T02:33:25;18.50;99.90
11188;DHT22;5650;52.700;7.306;2023-07-29T02:35:52;18.50;99.90
11188;DHT22;5650;52.700;7.306;2023-07-29T02:38:22;18.50;99.90
11188;DHT22;5650;52.700;7.306;2023-07-29T02:40:54;18.50;99.90
11188;DHT22;5650;52.700;7.306;2023-07-29T02:43:24;18.40;99.90
11188;DHT22;5650;52.700;7.306;2023-07-29T02:45:54;18.50;99.90
11188;DHT22;5650;52.700;7.306;2023-07-29T02:48:21;18.50;99.90
11188;DHT22;5650;52.700;7.306;2023-07-29T02:50:54;18.50;99.90
11188;DHT22;5650;52.700;7.306;2023-07-29T02:53:34;18.40;99.90
11188;DHT22;5650;52.700;7.306;2023-07-29T02:56:04;18.40;99.90
11188;DHT22;5650;52.700;7.306;2023-07-29T02:58:32;18.40;99.90
11188;DHT22;5650;52.700;7.306;2023-07-29T03:01:04;18.40;99.90
11188;DHT22;5650;52.700;7.306;2023-07-29T03:03:35;18.40;99.90
11188;DHT22;5650;52.700;7.306;2023-07-29T03:06:14;18.30;99.90
11188;DHT22;5650;52.700;7.306;2023-07-29T03:08:44;18.30;99.90
11188;DHT22;5650;52.700;7.306;2023-07-29T03:11:16;18.20;99.90
11188;DHT22;5650;52.700;7.306;2023-07-29T03:13:44;18.20;99.90
11188;DHT22;5650;52.700;7.306;2023-07-29T03:16:12;18.20;99.90
11188;DHT22;5650;52.700;7.306;2023-07-29T03:18:43;18.10;99.90
11188;DHT22;5650;52.700;7.306;2023-07-29T03:21:13;18.10;99.90
11188;DHT22;5650;52.700;7.306;2023-07-29T03:23:40;18.10;99.90
11188;DHT22;5650;52.700;7.306;2023-07-29T03:26:15;18.10;99.90
11188;DHT22;5650;52.700;7.306;2023-07-29T03:28:44;18.00;99.90
11188;DHT22;5650;52.700;7.306;2023-07-29T03:31:19;18.00;99.90
11188;DHT22;5650;52.700;7.306;2023-07-29T03:33:50;18.00;99.90
11188;DHT22;5650;52.700;7.306;2023-07-29T03:36:17;18.00;99.90
11188;DHT22;5650;52.700;7.306;2023-07-29T03:38:45;18.00;99.90
11188;DHT22;5650;52.700;7.306;2023-07-29T03:41:20;18.00;99.90
11188;DHT22;5650;52.700;7.306;2023-07-29T03:43:47;18.00;99.90
11188;DHT22;5650;52.700;7.306;2023-07-29T03:46:32;18.00;99.90
11188;DHT22;5650;52.700;7.306;2023-07-29T03:49:02;18.00;99.90
11188;DHT22;5650;52.700;7.306;2023-07-29T03:51:30;18.00;99.90
11188;DHT22;5650;52.700;7.306;2023-07-29T03:54:13;18.00;99.90
11188;DHT22;5650;52.700;7.306;2023-07-29T03:56:44;18.00;99.90
11188;DHT22;5650;52.700;7.306;2023-07-29T03:59:11;18.00;99.90
11188;DHT22;5650;52.700;7.306;2023-07-29T04:01:41;18.00;99.90
11188;DHT22;5650;52.700;7.306;2023-07-29T04:04:08;18.00;99.90
11188;DHT22;5650;52.700;7.306;2023-07-29T04:06:44;17.90;99.90
11188;DHT22;5650;52.700;7.306;2023-07-29T04:09:11;17.90;99.90
11188;DHT22;5650;52.700;7.306;2023-07-29T04:11:52;17.90;99.90
11188;DHT22;5650;52.700;7.306;2023-07-29T04:14:25;17.90;99.90
11188;DHT22;5650;52.700;7.306;2023-07-29T04:17:00;17.90;99.90
11188;DHT22;5650;52.700;7.306;2023-07-29T04:19:30;17.90;99.90
11188;DHT22;5650;52.700;7.306;2023-07-29T04:22:02;17.90;99.90
11188;DHT22;5650;52.700;7.306;2023-07-29T04:24:38;17.80;99.90
11188;DHT22;5650;52.700;7.306;2023-07-29T04:27:12;17.90;99.90
11188;DHT22;5650;52.700;7.306;2023-07-29T04:29:40;17.90;99.90
11188;DHT22;5650;52.700;7.306;2023-07-29T04:32:07;17.90;99.90
11188;DHT22;5650;52.700;7.306;2023-07-29T04:34:43;17.90;99.90
11188;DHT22;5650;52.700;7.306;2023-07-29T04:37:10;17.90;99.90
11188;DHT22;5650;52.700;7.306;2023-07-29T04:39:40;17.90;99.90
11188;DHT22;5650;52.700;7.306;2023-07-29T04:42:12;17.90;99.90
11188;DHT22;5650;52.700;7.306;2023-07-29T04:44:39;18.00;99.90
11188;DHT22;5650;52.700;7.306;2023-07-29T04:47:07;18.00;99.90
11188;DHT22;5650;52.700;7.306;2023-07-29T04:49:40;18.00;99.90
11188;DHT22;5650;52.700;7.306;2023-07-29T04:52:13;18.00;99.90
11188;DHT22;5650;52.700;7.306;2023-07-29T04:54:47;18.00;99.90
11188;DHT22;5650;52.700;7.306;2023-07-29T04:57:16;18.00;99.90
11188;DHT22;5650;52.700;7.306;2023-07-29T04:59:43;18.10;99.90
11188;DHT22;5650;52.700;7.306;2023-07-29T05:02:24;18.10;99.90
11188;DHT22;5650;52.700;7.306;2023-07-29T05:04:59;18.10;99.90
11188;DHT22;5650;52.700;7.306;2023-07-29T05:07:29;18.10;99.90
11188;DHT22;5650;52.700;7.306;2023-07-29T05:09:59;18.10;99.90
11188;DHT22;5650;52.700;7.306;2023-07-29T05:12:34;18.20;99.90
11188;DHT22;5650;52.700;7.306;2023-07-29T05:15:13;18.20;99.90
11188;DHT22;5650;52.700;7.306;2023-07-29T05:17:46;18.20;99.90
11188;DHT22;5650;52.700;7.306;2023-07-29T05:20:13;18.20;99.90
11188;DHT22;5650;52.700;7.306;2023-07-29T05:22:43;18.20;99.90
11188;DHT22;5650;52.700;7.306;2023-07-29T05:25:14;18.30;99.90
11188;DHT22;5650;52.700;7.306;2023-07-29T05:27:46;18.30;99.90
11188;DHT22;5650;52.700;7.306;2023-07-29T05:30:17;18.30;99.90
11188;DHT22;5650;52.700;7.306;2023-07-29T05:32:44;18.30;99.90
11188;DHT22;5650;52.700;7.306;2023-07-29T05:35:14;18.40;99.90
11188;DHT22;5650;52.700;7.306;2023-07-29T05:37:44;18.40;99.90
11188;DHT22;5650;52.700;7.306;2023-07-29T05:40:11;18.40;99.90
11188;DHT22;5650;52.700;7.306;2023-07-29T05:42:42;18.40;99.90
11188;DHT22;5650;52.700;7.306;2023-07-29T05:45:11;18.40;99.90
11188;DHT22;5650;52.700;7.306;2023-07-29T05:47:38;18.40;99.90
11188;DHT22;5650;52.700;7.306;2023-07-29T05:50:06;18.40;99.90
11188;DHT22;5650;52.700;7.306;2023-07-29T05:52:34;18.40;99.90
11188;DHT22;5650;52.700;7.306;2023-07-29T05:55:01;18.50;99.90
11188;DHT22;5650;52.700;7.306;2023-07-29T05:57:28;18.50;99.90
11188;DHT22;5650;52.700;7.306;2023-07-29T06:00:12;18.50;99.90
11188;DHT22;5650;52.700;7.306;2023-07-29T06:02:45;18.50;99.90
11188;DHT22;5650;52.700;7.306;2023-07-29T06:05:13;18.60;99.90
11188;DHT22;5650;52.700;7.306;2023-07-29T06:07:40;18.70;99.90
11188;DHT22;5650;52.700;7.306;2023-07-29T06:10:18;18.70;99.90
11188;DHT22;5650;52.700;7.306;2023-07-29T06:12:56;18.90;99.90
11188;DHT22;5650;52.700;7.306;2023-07-29T06:15:24;18.90;99.90
11188;DHT22;5650;52.700;7.306;2023-07-29T06:17:57;18.90;99.90
11188;DHT22;5650;52.700;7.306;2023-07-29T06:20:24;19.00;99.90
11188;DHT22;5650;52.700;7.306;2023-07-29T06:22:52;19.00;99.90
11188;DHT22;5650;52.700;7.306;2023-07-29T06:25:28;19.00;99.90
11188;DHT22;5650;52.700;7.306;2023-07-29T06:28:15;19.10;99.90
11188;DHT22;5650;52.700;7.306;2023-07-29T06:30:47;19.00;99.90
11188;DHT22;5650;52.700;7.306;2023-07-29T06:33:14;19.00;99.90
11188;DHT22;5650;52.700;7.306;2023-07-29T06:35:44;19.00;99.90
11188;DHT22;5650;52.700;7.306;2023-07-29T06:38:11;19.00;99.90
11188;DHT22;5650;52.700;7.306;2023-07-29T06:40:41;19.00;99.90
11188;DHT22;5650;52.700;7.306;2023-07-29T06:43:14;19.00;99.90
11188;DHT22;5650;52.700;7.306;2023-07-29T06:45:45;19.10;99.90
11188;DHT22;5650;52.700;7.306;2023-07-29T06:48:16;19.10;99.90
11188;DHT22;5650;52.700;7.306;2023-07-29T06:50:44;19.20;99.90
11188;DHT22;5650;52.700;7.306;2023-07-29T06:53:17;19.30;99.90
11188;DHT22;5650;52.700;7.306;2023-07-29T06:55:51;19.30;99.90
11188;DHT22;5650;52.700;7.306;2023-07-29T06:58:18;19.40;99.90
11188;DHT22;5650;52.700;7.306;2023-07-29T07:01:04;19.40;99.90
11188;DHT22;5650;52.700;7.306;2023-07-29T07:06:50;19.70;99.90
11188;DHT22;5650;52.700;7.306;2023-07-29T07:09:23;20.10;99.90
11188;DHT22;5650;52.700;7.306;2023-07-29T07:11:56;20.50;99.90
11188;DHT22;5650;52.700;7.306;2023-07-29T07:14:23;20.70;99.90
11188;DHT22;5650;52.700;7.306;2023-07-29T07:16:51;21.00;99.90
11188;DHT22;5650;52.700;7.306;2023-07-29T07:19:19;21.10;99.90
11188;DHT22;5650;52.700;7.306;2023-07-29T07:21:47;21.10;99.90
11188;DHT22;5650;52.700;7.306;2023-07-29T07:24:15;21.10;99.90
11188;DHT22;5650;52.700;7.306;2023-07-29T07:26:42;21.00;99.90
11188;DHT22;5650;52.700;7.306;2023-07-29T07:29:15;21.00;99.90
11188;DHT22;5650;52.700;7.306;2023-07-29T07:31:50;21.00;99.90
11188;DHT22;5650;52.700;7.306;2023-07-29T07:34:21;20.90;99.90
11188;DHT22;5650;52.700;7.306;2023-07-29T07:37:00;20.90;99.90
11188;DHT22;5650;52.700;7.306;2023-07-29T07:39:34;20.90;99.90
11188;DHT22;5650;52.700;7.306;2023-07-29T07:42:01;20.80;99.90
11188;DHT22;5650;52.700;7.306;2023-07-29T07:47:57;20.80;99.90
11188;DHT22;5650;52.700;7.306;2023-07-29T07:50:29;20.70;99.90
11188;DHT22;5650;52.700;7.306;2023-07-29T07:52:59;20.80;99.90
11188;DHT22;5650;52.700;7.306;2023-07-29T07:55:40;21.00;99.90
11188;DHT22;5650;52.700;7.306;2023-07-29T07:58:07;21.20;99.90
11188;DHT22;5650;52.700;7.306;2023-07-29T08:00:41;21.40;99.90
11188;DHT22;5650;52.700;7.306;2023-07-29T08:03:08;21.80;99.90
11188;DHT22;5650;52.700;7.306;2023-07-29T08:05:41;22.40;99.90
11188;DHT22;5650;52.700;7.306;2023-07-29T08:08:12;23.10;99.90
11188;DHT22;5650;52.700;7.306;2023-07-29T08:10:40;23.60;99.90
11188;DHT22;5650;52.700;7.306;2023-07-29T08:13:36;23.80;99.90
11188;DHT22;5650;52.700;7.306;2023-07-29T08:16:03;23.80;99.90
11188;DHT22;5650;52.700;7.306;2023-07-29T08:18:33;23.70;99.90
11188;DHT22;5650;52.700;7.306;2023-07-29T08:21:01;23.60;99.90
11188;DHT22;5650;52.700;7.306;2023-07-29T08:23:29;23.20;99.90
11188;DHT22;5650;52.700;7.306;2023-07-29T08:25:59;23.10;99.90
11188;DHT22;5650;52.700;7.306;2023-07-29T08:28:28;23.30;99.90
11188;DHT22;5650;52.700;7.306;2023-07-29T08:30:56;23.50;99.90
11188;DHT22;5650;52.700;7.306;2023-07-29T08:33:23;23.50;99.90
11188;DHT22;5650;52.700;7.306;2023-07-29T08:36:00;23.70;99.90
11188;DHT22;5650;52.700;7.306;2023-07-29T08:38:27;24.00;99.90
11188;DHT22;5650;52.700;7.306;2023-07-29T08:41:06;24.20;99.90
11188;DHT22;5650;52.700;7.306;2023-07-29T08:43:39;24.30;99.90
11188;DHT22;5650;52.700;7.306;2023-07-29T08:46:10;24.10;99.90
11188;DHT22;5650;52.700;7.306;2023-07-29T08:48:41;24.00;99.90
11188;DHT22;5650;52.700;7.306;2023-07-29T08:51:09;23.90;99.90
11188;DHT22;5650;52.700;7.306;2023-07-29T08:53:37;23.90;99.90
11188;DHT22;5650;52.700;7.306;2023-07-29T08:56:06;24.10;99.90
11188;DHT22;5650;52.700;7.306;2023-07-29T08:58:35;24.20;99.90
11188;DHT22;5650;52.700;7.306;2023-07-29T09:01:02;24.30;99.90
11188;DHT22;5650;52.700;7.306;2023-07-29T09:03:29;24.40;99.90
11188;DHT22;5650;52.700;7.306;2023-07-29T09:05:58;24.50;99.90
11188;DHT22;5650;52.700;7.306;2023-07-29T09:08:26;24.60;99.90
11188;DHT22;5650;52.700;7.306;2023-07-29T09:10:53;24.70;99.90
11188;DHT22;5650;52.700;7.306;2023-07-29T09:13:22;24.80;99.90
11188;DHT22;5650;52.700;7.306;2023-07-29T09:15:54;25.10;99.90
11188;DHT22;5650;52.700;7.306;2023-07-29T09:18:21;25.00;99.90
11188;DHT22;5650;52.700;7.306;2023-07-29T09:20:49;24.80;99.90
11188;DHT22;5650;52.700;7.306;2023-07-29T09:23:17;24.50;99.90
11188;DHT22;5650;52.700;7.306;2023-07-29T09:25:46;24.40;99.90
11188;DHT22;5650;52.700;7.306;2023-07-29T09:28:15;24.30;99.90
11188;DHT22;5650;52.700;7.306;2023-07-29T09:30:46;24.40;99.90
11188;DHT22;5650;52.700;7.306;2023-07-29T09:33:13;24.40;99.90
11188;DHT22;5650;52.700;7.306;2023-07-29T09:35:47;24.40;99.90
11188;DHT22;5650;52.700;7.306;2023-07-29T09:38:15;24.40;99.90
11188;DHT22;5650;52.700;7.306;2023-07-29T09:40:46;24.40;99.90
11188;DHT22;5650;52.700;7.306;2023-07-29T09:43:17;24.40;99.90
11188;DHT22;5650;52.700;7.306;2023-07-29T09:45:46;24.30;99.90
11188;DHT22;5650;52.700;7.306;2023-07-29T09:48:13;24.30;99.90
11188;DHT22;5650;52.700;7.306;2023-07-29T09:50:48;24.30;99.90
11188;DHT22;5650;52.700;7.306;2023-07-29T09:53:19;24.20;99.90
11188;DHT22;5650;52.700;7.306;2023-07-29T09:55:47;24.10;99.90
11188;DHT22;5650;52.700;7.306;2023-07-29T09:58:25;24.10;99.90
11188;DHT22;5650;52.700;7.306;2023-07-29T10:00:54;24.10;99.90
11188;DHT22;5650;52.700;7.306;2023-07-29T10:03:22;24.10;99.90
11188;DHT22;5650;52.700;7.306;2023-07-29T10:05:49;24.10;99.90
11188;DHT22;5650;52.700;7.306;2023-07-29T10:08:18;24.20;99.90
11188;DHT22;5650;52.700;7.306;2023-07-29T10:10:46;24.30;99.90
11188;DHT22;5650;52.700;7.306;2023-07-29T10:13:14;24.30;99.90
11188;DHT22;5650;52.700;7.306;2023-07-29T10:15:42;24.20;99.90
11188;DHT22;5650;52.700;7.306;2023-07-29T10:18:12;24.30;99.90
11188;DHT22;5650;52.700;7.306;2023-07-29T10:20:41;24.40;99.90
11188;DHT22;5650;52.700;7.306;2023-07-29T10:23:10;24.40;99.90
11188;DHT22;5650;52.700;7.306;2023-07-29T10:25:39;24.40;99.90
11188;DHT22;5650;52.700;7.306;2023-07-29T10:28:11;24.30;99.90
11188;DHT22;5650;52.700;7.306;2023-07-29T10:30:39;24.10;99.90
11188;DHT22;5650;52.700;7.306;2023-07-29T10:33:07;24.10;99.90
11188;DHT22;5650;52.700;7.306;2023-07-29T10:35:37;24.00;99.90
11188;DHT22;5650;52.700;7.306;2023-07-29T10:38:06;24.10;99.90
11188;DHT22;5650;52.700;7.306;2023-07-29T10:40:47;24.20;99.90
11188;DHT22;5650;52.700;7.306;2023-07-29T10:43:19;24.20;99.90
11188;DHT22;5650;52.700;7.306;2023-07-29T10:45:50;24.10;99.90
11188;DHT22;5650;52.700;7.306;2023-07-29T10:48:41;24.00;99.90
11188;DHT22;5650;52.700;7.306;2023-07-29T10:51:29;24.00;99.90
11188;DHT22;5650;52.700;7.306;2023-07-29T10:54:01;24.00;99.90
11188;DHT22;5650;52.700;7.306;2023-07-29T10:56:29;24.00;99.90
11188;DHT22;5650;52.700;7.306;2023-07-29T10:58:59;24.10;99.90
11188;DHT22;5650;52.700;7.306;2023-07-29T11:01:30;24.10;99.90
11188;DHT22;5650;52.700;7.306;2023-07-29T11:07:22;24.30;99.90
11188;DHT22;5650;52.700;7.306;2023-07-29T11:09:58;24.50;99.90
11188;DHT22;5650;52.700;7.306;2023-07-29T11:12:49;24.50;99.90
11188;DHT22;5650;52.700;7.306;2023-07-29T11:15:19;24.60;99.90
11188;DHT22;5650;52.700;7.306;2023-07-29T11:17:49;24.80;99.90
11188;DHT22;5650;52.700;7.306;2023-07-29T11:20:17;24.90;99.90
11188;DHT22;5650;52.700;7.306;2023-07-29T11:22:46;25.00;99.90
11188;DHT22;5650;52.700;7.306;2023-07-29T11:25:14;25.10;99.90
11188;DHT22;5650;52.700;7.306;2023-07-29T11:27:42;25.20;99.90
11188;DHT22;5650;52.700;7.306;2023-07-29T11:30:10;25.20;99.90
11188;DHT22;5650;52.700;7.306;2023-07-29T11:32:39;25.10;99.90
11188;DHT22;5650;52.700;7.306;2023-07-29T11:35:08;25.10;99.90
11188;DHT22;5650;52.700;7.306;2023-07-29T11:37:35;25.00;99.90
11188;DHT22;5650;52.700;7.306;2023-07-29T11:40:05;25.10;99.90
11188;DHT22;5650;52.700;7.306;2023-07-29T11:42:33;25.10;99.90
11188;DHT22;5650;52.700;7.306;2023-07-29T11:45:01;25.10;99.90
11188;DHT22;5650;52.700;7.306;2023-07-29T11:47:29;25.00;99.90
11188;DHT22;5650;52.700;7.306;2023-07-29T11:49:59;25.00;99.90
11188;DHT22;5650;52.700;7.306;2023-07-29T11:52:27;24.80;99.90
11188;DHT22;5650;52.700;7.306;2023-07-29T11:54:55;24.70;99.90
11188;DHT22;5650;52.700;7.306;2023-07-29T11:57:23;24.70;99.90
11188;DHT22;5650;52.700;7.306;2023-07-29T11:59:51;24.70;99.90
11188;DHT22;5650;52.700;7.306;2023-07-29T12:02:19;24.70;99.90
11188;DHT22;5650;52.700;7.306;2023-07-29T12:04:48;24.80;99.90
11188;DHT22;5650;52.700;7.306;2023-07-29T12:07:17;24.80;99.90
11188;DHT22;5650;52.700;7.306;2023-07-29T12:09:45;24.70;99.90
11188;DHT22;5650;52.700;7.306;2023-07-29T12:12:16;24.80;99.90
11188;DHT22;5650;52.700;7.306;2023-07-29T12:14:45;24.80;99.90
11188;DHT22;5650;52.700;7.306;2023-07-29T12:17:13;24.80;99.90
11188;DHT22;5650;52.700;7.306;2023-07-29T12:19:41;24.70;99.90
11188;DHT22;5650;52.700;7.306;2023-07-29T12:22:12;24.60;99.90
11188;DHT22;5650;52.700;7.306;2023-07-29T12:24:44;24.50;99.90
11188;DHT22;5650;52.700;7.306;2023-07-29T12:27:14;24.40;99.90
11188;DHT22;5650;52.700;7.306;2023-07-29T12:29:45;24.30;99.90
11188;DHT22;5650;52.700;7.306;2023-07-29T12:32:16;24.30;99.90
11188;DHT22;5650;52.700;7.306;2023-07-29T12:34:46;24.30;99.90
11188;DHT22;5650;52.700;7.306;2023-07-29T12:37:13;24.30;99.90
11188;DHT22;5650;52.700;7.306;2023-07-29T12:39:41;24.30;99.90
11188;DHT22;5650;52.700;7.306;2023-07-29T12:42:24;24.30;99.90
11188;DHT22;5650;52.700;7.306;2023-07-29T12:44:53;24.40;99.90
11188;DHT22;5650;52.700;7.306;2023-07-29T12:47:23;24.40;99.90
11188;DHT22;5650;52.700;7.306;2023-07-29T12:49:50;24.50;99.90
11188;DHT22;5650;52.700;7.306;2023-07-29T12:52:20;24.60;99.90
11188;DHT22;5650;52.700;7.306;2023-07-29T12:54:47;24.70;99.90
11188;DHT22;5650;52.700;7.306;2023-07-29T12:57:14;24.80;99.90
11188;DHT22;5650;52.700;7.306;2023-07-29T12:59:41;24.70;99.90
11188;DHT22;5650;52.700;7.306;2023-07-29T13:02:10;24.60;99.90
11188;DHT22;5650;52.700;7.306;2023-07-29T13:04:37;24.50;99.90
11188;DHT22;5650;52.700;7.306;2023-07-29T13:07:05;24.40;99.90
11188;DHT22;5650;52.700;7.306;2023-07-29T13:09:32;24.30;99.90
11188;DHT22;5650;52.700;7.306;2023-07-29T13:11:59;24.20;99.90
11188;DHT22;5650;52.700;7.306;2023-07-29T13:14:26;24.10;99.90
11188;DHT22;5650;52.700;7.306;2023-07-29T13:16:54;24.00;99.90
11188;DHT22;5650;52.700;7.306;2023-07-29T13:19:29;24.00;99.90
11188;DHT22;5650;52.700;7.306;2023-07-29T13:22:02;24.10;99.90
11188;DHT22;5650;52.700;7.306;2023-07-29T13:24:38;24.20;99.90
11188;DHT22;5650;52.700;7.306;2023-07-29T13:27:05;24.40;99.90
11188;DHT22;5650;52.700;7.306;2023-07-29T13:29:33;24.40;99.90
11188;DHT22;5650;52.700;7.306;2023-07-29T13:32:00;24.50;99.90
11188;DHT22;5650;52.700;7.306;2023-07-29T13:34:28;24.50;99.90
11188;DHT22;5650;52.700;7.306;2023-07-29T13:36:59;24.50;99.90
11188;DHT22;5650;52.700;7.306;2023-07-29T13:39:26;24.50;99.90
11188;DHT22;5650;52.700;7.306;2023-07-29T13:41:56;24.50;99.90
11188;DHT22;5650;52.700;7.306;2023-07-29T13:44:23;24.50;99.90
11188;DHT22;5650;52.700;7.306;2023-07-29T13:46:50;24.40;99.90
11188;DHT22;5650;52.700;7.306;2023-07-29T13:49:17;24.40;99.90
11188;DHT22;5650;52.700;7.306;2023-07-29T13:51:49;24.40;99.90
11188;DHT22;5650;52.700;7.306;2023-07-29T13:54:16;24.20;99.90
11188;DHT22;5650;52.700;7.306;2023-07-29T13:56:46;24.20;99.90
11188;DHT22;5650;52.700;7.306;2023-07-29T13:59:13;24.10;99.90
11188;DHT22;5650;52.700;7.306;2023-07-29T14:01:43;24.10;99.90
11188;DHT22;5650;52.700;7.306;2023-07-29T14:04:11;24.00;99.90
11188;DHT22;5650;52.700;7.306;2023-07-29T14:06:38;24.10;99.90
11188;DHT22;5650;52.700;7.306;2023-07-29T14:09:07;24.10;99.90
11188;DHT22;5650;52.700;7.306;2023-07-29T14:11:34;24.10;99.90
11188;DHT22;5650;52.700;7.306;2023-07-29T14:14:01;24.20;99.90
11188;DHT22;5650;52.700;7.306;2023-07-29T14:16:31;24.30;99.90
11188;DHT22;5650;52.700;7.306;2023-07-29T14:19:11;24.30;99.90
11188;DHT22;5650;52.700;7.306;2023-07-29T14:21:43;24.50;99.90
11188;DHT22;5650;52.700;7.306;2023-07-29T14:24:15;24.60;99.90
11188;DHT22;5650;52.700;7.306;2023-07-29T14:26:45;24.70;99.90
11188;DHT22;5650;52.700;7.306;2023-07-29T14:29:18;24.70;99.90
11188;DHT22;5650;52.700;7.306;2023-07-29T14:32:02;24.60;99.90
11188;DHT22;5650;52.700;7.306;2023-07-29T14:34:29;24.50;99.90
11188;DHT22;5650;52.700;7.306;2023-07-29T14:36:59;24.60;99.90
11188;DHT22;5650;52.700;7.306;2023-07-29T14:39:31;24.70;99.90
11188;DHT22;5650;52.700;7.306;2023-07-29T14:42:01;24.70;99.90
11188;DHT22;5650;52.700;7.306;2023-07-29T14:44:29;24.70;99.90
11188;DHT22;5650;52.700;7.306;2023-07-29T14:46:59;24.70;99.90
11188;DHT22;5650;52.700;7.306;2023-07-29T14:49:29;24.70;99.90
11188;DHT22;5650;52.700;7.306;2023-07-29T14:51:56;24.70;99.90
11188;DHT22;5650;52.700;7.306;2023-07-29T14:54:26;24.60;99.90
11188;DHT22;5650;52.700;7.306;2023-07-29T14:56:55;24.60;99.90
11188;DHT22;5650;52.700;7.306;2023-07-29T14:59:28;24.40;99.90
11188;DHT22;5650;52.700;7.306;2023-07-29T15:01:59;24.30;99.90
11188;DHT22;5650;52.700;7.306;2023-07-29T15:04:28;24.30;99.90
11188;DHT22;5650;52.700;7.306;2023-07-29T15:06:58;24.40;99.90
11188;DHT22;5650;52.700;7.306;2023-07-29T15:09:44;24.40;99.90
11188;DHT22;5650;52.700;7.306;2023-07-29T15:12:15;24.40;99.90
11188;DHT22;5650;52.700;7.306;2023-07-29T15:14:45;24.40;99.90
11188;DHT22;5650;52.700;7.306;2023-07-29T15:17:14;24.40;99.90
11188;DHT22;5650;52.700;7.306;2023-07-29T15:19:41;24.30;99.90
11188;DHT22;5650;52.700;7.306;2023-07-29T15:22:14;24.20;99.90
11188;DHT22;5650;52.700;7.306;2023-07-29T15:24:47;24.10;99.90
11188;DHT22;5650;52.700;7.306;2023-07-29T15:27:18;24.10;99.90
11188;DHT22;5650;52.700;7.306;2023-07-29T15:29:48;24.00;99.90
11188;DHT22;5650;52.700;7.306;2023-07-29T15:32:18;24.00;99.90
11188;DHT22;5650;52.700;7.306;2023-07-29T15:34:45;24.00;99.90
11188;DHT22;5650;52.700;7.306;2023-07-29T15:37:15;24.00;99.90
11188;DHT22;5650;52.700;7.306;2023-07-29T15:39:42;24.10;99.90
11188;DHT22;5650;52.700;7.306;2023-07-29T15:42:22;24.10;99.90
11188;DHT22;5650;52.700;7.306;2023-07-29T15:44:49;24.20;99.90
11188;DHT22;5650;52.700;7.306;2023-07-29T15:47:19;24.10;99.90
11188;DHT22;5650;52.700;7.306;2023-07-29T15:49:46;24.00;99.90
11188;DHT22;5650;52.700;7.306;2023-07-29T15:52:13;23.80;99.90
11188;DHT22;5650;52.700;7.306;2023-07-29T15:54:40;23.70;99.90
11188;DHT22;5650;52.700;7.306;2023-07-29T15:57:11;23.60;99.90
11188;DHT22;5650;52.700;7.306;2023-07-29T15:59:39;23.40;99.90
11188;DHT22;5650;52.700;7.306;2023-07-29T16:02:12;23.10;99.90
11188;DHT22;5650;52.700;7.306;2023-07-29T16:04:39;22.90;99.90
11188;DHT22;5650;52.700;7.306;2023-07-29T16:07:06;22.60;99.90
11188;DHT22;5650;52.700;7.306;2023-07-29T16:09:33;21.90;99.90
11188;DHT22;5650;52.700;7.306;2023-07-29T16:12:03;21.10;99.90
11188;DHT22;5650;52.700;7.306;2023-07-29T16:14:40;20.60;99.90
11188;DHT22;5650;52.700;7.306;2023-07-29T16:17:07;20.20;99.90